Time;durP1;ratioP1;P1;durP2;ratioP2;P2;SDS_P1;SDS_P2;PMS_P1;PMS_P2;Temp;Humidity;BMP_temperature;BMP_pressure;BME280_temperature;BME280_humidity;BME280_pressure;Samples;Min_cycle;Max_cycle;Signal;HPM_P1;HPM_P2
2022/03/24 00:00:51;;;;;;;24.80;16.20;;;;;;;13.63;27.83;101138.47;5051059;28;20065;-60
2022/03/24 00:03:17;;;;;;;25.85;16.38;;;;;;;13.60;28.08;101138.59;5051247;28;20524;-60
2022/03/24 00:05:51;;;;;;;23.20;15.52;;;;;;;13.55;28.28;101133.56;5051365;28;20048;-60
2022/03/24 00:08:17;;;;;;;22.90;16.08;;;;;;;13.52;27.91;101135.47;5051432;28;20053;-60
2022/03/24 00:10:44;;;;;;;20.15;15.25;;;;;;;13.49;28.07;101127.69;5049607;28;20095;-61
2022/03/24 00:13:11;;;;;;;21.45;15.52;;;;;;;13.45;28.19;101132.22;5051244;28;20056;-60
2022/03/24 00:15:37;;;;;;;21.33;16.30;;;;;;;13.45;27.76;101136.66;5051121;28;20041;-61
2022/03/24 00:18:05;;;;;;;20.27;14.90;;;;;;;13.40;28.02;101129.81;5051228;28;20055;-59
2022/03/24 00:20:32;;;;;;;21.58;15.57;;;;;;;13.38;27.73;101126.38;5051338;28;20053;-61
2022/03/24 00:22:59;;;;;;;24.58;16.30;;;;;;;13.36;27.83;101136.16;5051236;28;20490;-61
2022/03/24 00:25:26;;;;;;;24.13;16.23;;;;;;;13.35;28.17;101126.50;5051103;28;20048;-61
2022/03/24 00:27:52;;;;;;;24.08;16.60;;;;;;;13.33;28.26;101122.22;5050996;28;20049;-60
2022/03/24 00:30:19;;;;;;;24.95;17.20;;;;;;;13.31;28.11;101121.44;5049627;28;20762;-62
2022/03/24 00:32:45;;;;;;;21.75;15.43;;;;;;;13.27;28.10;101123.38;5051511;28;20482;-61
2022/03/24 00:35:12;;;;;;;24.58;16.15;;;;;;;13.23;28.25;101116.50;5051190;28;20049;-59
2022/03/24 00:37:39;;;;;;;23.98;15.65;;;;;;;13.19;28.13;101118.44;5050737;28;20449;-61
2022/03/24 00:40:07;;;;;;;21.15;15.23;;;;;;;13.16;27.97;101113.31;5050968;28;20061;-60
2022/03/24 00:42:36;;;;;;;22.80;15.57;;;;;;;13.11;28.62;101113.50;5049733;28;20135;-61
2022/03/24 00:45:10;;;;;;;22.27;16.02;;;;;;;13.08;28.67;101118.91;5049263;28;20056;-60
2022/03/24 00:47:36;;;;;;;21.33;15.02;;;;;;;13.06;28.61;101110.22;5050544;28;20057;-60
2022/03/24 00:50:07;;;;;;;20.55;15.00;;;;;;;13.01;28.26;101114.84;5050235;28;20136;-61
2022/03/24 00:52:41;;;;;;;22.70;15.13;;;;;;;12.98;28.44;101115.81;5049222;28;20056;-62
2022/03/24 00:55:13;;;;;;;22.70;15.40;;;;;;;12.93;28.20;101115.19;5050407;28;20081;-60
2022/03/24 00:57:40;;;;;;;20.50;14.40;;;;;;;12.89;28.03;101121.53;5050468;28;20041;-61
2022/03/24 01:00:09;;;;;;;20.52;14.43;;;;;;;12.86;28.18;101119.88;5050561;28;20059;-59
2022/03/24 01:02:37;;;;;;;21.55;14.40;;;;;;;12.84;28.27;101105.03;5048889;28;20060;-61
2022/03/24 01:05:06;;;;;;;20.60;15.02;;;;;;;12.80;28.54;101112.25;5049291;28;20131;-60
2022/03/24 01:07:36;;;;;;;20.38;14.68;;;;;;;12.79;28.55;101107.03;5050466;28;20075;-61
2022/03/24 01:10:04;;;;;;;21.10;14.82;;;;;;;12.79;28.52;101114.94;5050027;28;20477;-60
2022/03/24 01:12:30;;;;;;;19.13;14.50;;;;;;;12.79;28.53;101113.19;5050416;28;20045;-61
2022/03/24 01:14:58;;;;;;;19.83;14.38;;;;;;;12.77;28.41;101104.44;5050511;28;20060;-60
2022/03/24 01:17:26;;;;;;;23.67;16.05;;;;;;;12.77;28.75;101101.81;5048640;28;20486;-60
2022/03/24 01:19:53;;;;;;;22.42;15.57;;;;;;;12.76;28.64;101105.38;5050030;28;20048;-59
2022/03/24 01:22:20;;;;;;;23.58;15.38;;;;;;;12.75;28.87;101101.03;5050096;28;20057;-60
2022/03/24 01:24:47;;;;;;;25.33;17.05;;;;;;;12.73;28.83;101105.50;5050255;28;20107;-63
2022/03/24 01:27:15;;;;;;;26.02;18.02;;;;;;;12.71;29.02;101102.94;5048839;28;20053;-60
2022/03/24 01:29:42;;;;;;;26.38;17.65;;;;;;;12.69;29.06;101101.28;5050048;28;20048;-59
2022/03/24 01:32:10;;;;;;;25.85;17.55;;;;;;;12.66;29.23;101102.28;5048883;28;20448;-59
2022/03/24 01:34:38;;;;;;;24.45;17.92;;;;;;;12.62;29.43;101104.22;5050138;28;20041;-59
2022/03/24 01:37:06;;;;;;;27.05;17.95;;;;;;;12.58;29.24;101094.72;5049811;28;20053;-62
2022/03/24 01:39:33;;;;;;;28.60;18.15;;;;;;;12.54;29.11;101098.41;5049991;28;20041;-61
2022/03/24 01:42:00;;;;;;;30.13;18.17;;;;;;;12.48;29.40;101093.38;5048903;28;20045;-61
2022/03/24 01:44:28;;;;;;;30.98;18.55;;;;;;;12.43;29.38;101090.06;5048466;28;20049;-62
2022/03/24 01:47:03;;;;;;;25.67;17.55;;;;;;;12.36;29.92;101090.34;5049741;28;20064;-62
2022/03/24 01:49:31;;;;;;;26.52;17.85;;;;;;;12.35;29.40;101093.94;5049510;28;20045;-61
2022/03/24 01:51:59;;;;;;;28.30;16.98;;;;;;;12.33;29.50;101082.56;5049870;28;20049;-61
2022/03/24 01:54:30;;;;;;;23.25;17.08;;;;;;;12.28;29.95;101086.31;5048361;28;20057;-60
2022/03/24 01:56:58;;;;;;;25.60;15.65;;;;;;;12.24;29.66;101091.75;5049728;28;20048;-60
2022/03/24 01:59:25;;;;;;;27.15;17.27;;;;;;;12.21;29.53;101085.72;5048400;28;20049;-60
2022/03/24 02:01:52;;;;;;;24.63;16.65;;;;;;;12.18;29.70;101089.34;5049771;28;20053;-60
2022/03/24 02:04:21;;;;;;;21.98;16.65;;;;;;;12.15;29.75;101080.72;5049618;28;20056;-60
2022/03/24 02:06:48;;;;;;;30.10;16.95;;;;;;;12.12;30.14;101086.97;5048337;28;20057;-62
2022/03/24 02:09:15;;;;;;;26.42;16.80;;;;;;;12.09;29.89;101077.41;5049540;28;20095;-61
2022/03/24 02:11:42;;;;;;;26.40;15.65;;;;;;;12.07;29.91;101081.03;5049485;28;20060;-61
2022/03/24 02:14:09;;;;;;;22.85;14.95;;;;;;;12.02;29.96;101075.03;5049926;28;20049;-60
2022/03/24 02:16:38;;;;;;;25.10;15.38;;;;;;;11.99;30.54;101073.41;5052478;28;20456;-62
2022/03/24 02:19:12;;;;;;;22.33;15.13;;;;;;;11.95;30.41;101077.09;5051942;28;20131;-59
2022/03/24 02:21:40;;;;;;;23.00;15.52;;;;;;;11.94;30.49;101070.97;5051741;28;20103;-61
2022/03/24 02:24:08;;;;;;;22.55;14.82;;;;;;;11.92;29.92;101071.97;5050516;28;20489;-59
2022/03/24 02:26:36;;;;;;;22.13;14.48;;;;;;;11.89;30.18;101069.44;5051859;28;20049;-60
2022/03/24 02:29:06;;;;;;;24.98;14.95;;;;;;;11.86;29.98;101076.53;5051905;28;20055;-60
2022/03/24 02:31:38;;;;;;;21.15;14.55;;;;;;;11.87;30.03;101072.13;5053358;28;20060;-59
2022/03/24 02:36:53;;;;;;;31.08;15.40;;;;;;;11.90;29.97;101063.22;5052706;28;20075;-61
2022/03/24 02:39:19;;;;;;;21.42;13.98;;;;;;;11.92;29.71;101064.03;5052560;28;20053;-59
2022/03/24 02:41:47;;;;;;;21.13;15.05;;;;;;;11.92;29.50;101066.69;5052482;28;20056;-60
2022/03/24 02:44:17;;;;;;;19.85;14.43;;;;;;;11.94;29.51;101067.47;5052897;28;20056;-62
2022/03/24 02:46:47;;;;;;;21.45;14.07;;;;;;;11.95;29.65;101064.75;5052884;28;20102;-59
2022/03/24 02:49:18;;;;;;;23.45;14.85;;;;;;;11.97;29.85;101062.06;5052894;28;20460;-60
2022/03/24 02:51:45;;;;;;;22.10;15.07;;;;;;;12.00;29.46;101061.91;5051257;28;20060;-61
2022/03/24 02:54:12;;;;;;;19.10;14.38;;;;;;;11.99;29.67;101062.84;5052542;28;20098;-60
2022/03/24 02:56:42;;;;;;;23.70;15.80;;;;;;;11.96;29.53;101065.63;5051494;28;20106;-61
2022/03/24 02:59:10;;;;;;;21.83;15.18;;;;;;;11.94;29.52;101067.47;5052639;28;20045;-62
2022/03/24 03:01:38;;;;;;;21.77;15.70;;;;;;;11.90;29.51;101060.59;5052722;28;20045;-60
2022/03/24 03:04:05;;;;;;;23.75;15.82;;;;;;;11.86;29.50;101054.59;5051597;28;20064;-59
2022/03/24 03:06:35;;;;;;;23.38;15.45;;;;;;;11.81;29.52;101056.56;5052197;28;20094;-59
2022/03/24 03:09:02;;;;;;;25.02;16.25;;;;;;;11.76;29.73;101056.75;5051111;28;20448;-60
2022/03/24 03:11:32;;;;;;;22.98;16.05;;;;;;;11.73;29.86;101068.28;5051065;28;20072;-59
2022/03/24 03:14:00;;;;;;;25.50;16.63;;;;;;;11.70;30.04;101062.28;5052569;28;20053;-60
2022/03/24 03:16:28;;;;;;;26.02;16.60;;;;;;;11.66;29.94;101068.59;5050991;28;20045;-62
2022/03/24 03:18:55;;;;;;;23.95;16.67;;;;;;;11.63;30.35;101064.31;5052156;28;20041;-60
2022/03/24 03:21:22;;;;;;;28.30;16.65;;;;;;;11.60;30.09;101069.72;5051825;28;20060;-60
2022/03/24 03:23:48;;;;;;;24.00;16.77;;;;;;;11.56;30.25;101068.09;5052293;28;20049;-59
2022/03/24 03:26:16;;;;;;;26.23;16.38;;;;;;;11.52;30.42;101067.38;5052112;28;20049;-61
2022/03/24 03:28:44;;;;;;;21.92;15.40;;;;;;;11.47;30.25;101064.91;5052242;28;20053;-59
2022/03/24 03:31:11;;;;;;;20.80;14.70;;;;;;;11.44;30.02;101070.31;5052005;28;20053;-60
2022/03/24 03:33:37;;;;;;;21.33;14.70;;;;;;;11.41;30.17;101069.56;5051799;28;20444;-60
2022/03/24 03:36:04;;;;;;;23.13;15.65;;;;;;;11.38;30.09;101069.69;5051830;28;20045;-59
2022/03/24 03:38:32;;;;;;;22.50;15.85;;;;;;;11.37;30.31;101067.97;5052143;28;20041;-60
2022/03/24 03:41:00;;;;;;;21.73;14.82;;;;;;;11.37;30.15;101067.97;5050362;28;20056;-59
2022/03/24 03:43:26;;;;;;;22.08;16.10;;;;;;;11.37;30.27;101063.56;5051716;28;20049;-60
2022/03/24 03:45:53;;;;;;;21.75;15.50;;;;;;;11.37;30.32;101062.69;5051575;28;20079;-60
2022/03/24 03:48:20;;;;;;;24.13;16.50;;;;;;;11.36;30.36;101071.53;5051636;28;20049;-60
2022/03/24 03:50:46;;;;;;;26.40;16.02;;;;;;;11.34;30.16;101075.06;5051148;28;20052;-61
2022/03/24 03:53:13;;;;;;;23.02;15.50;;;;;;;11.34;30.27;101072.44;5051495;28;20107;-60
2022/03/24 03:55:40;;;;;;;24.02;15.93;;;;;;;11.33;30.07;101068.09;5051696;28;20099;-59
2022/03/24 03:58:07;;;;;;;23.27;15.80;;;;;;;11.33;30.45;101069.88;5051403;28;20098;-60
2022/03/24 04:00:53;;;;;;;25.95;16.75;;;;;;;11.33;30.26;101072.53;5051144;28;20490;-61
2022/03/24 04:03:20;;;;;;;23.52;15.48;;;;;;;11.32;30.43;101066.38;5051403;28;20107;-62
2022/03/24 04:05:47;;;;;;;23.63;16.20;;;;;;;11.31;30.33;101069.06;5051312;28;20085;-60
2022/03/24 04:08:13;;;;;;;25.40;15.27;;;;;;;11.30;30.29;101072.63;5051146;28;20052;-60
2022/03/24 04:10:40;;;;;;;28.15;17.48;;;;;;;11.27;30.39;101068.34;5051135;28;20057;-62
2022/03/24 04:13:07;;;;;;;25.67;16.63;;;;;;;11.26;30.28;101064.00;5051070;28;20555;-61
2022/03/24 04:15:34;;;;;;;24.98;16.13;;;;;;;11.25;30.38;101070.16;5050882;28;20555;-61
2022/03/24 04:18:01;;;;;;;25.08;17.13;;;;;;;11.24;30.53;101068.44;5050883;28;20557;-61
2022/03/24 04:20:27;;;;;;;24.75;17.13;;;;;;;11.22;30.37;101070.31;5050590;28;20390;-59
2022/03/24 04:22:58;;;;;;;26.60;16.35;;;;;;;11.19;30.70;101063.38;5050934;28;20734;-59
2022/03/24 04:25:26;;;;;;;30.33;17.02;;;;;;;11.17;30.57;101070.47;5049731;28;20053;-60
2022/03/24 04:27:52;;;;;;;26.20;16.40;;;;;;;11.15;30.56;101068.81;5050683;28;20103;-62
2022/03/24 04:30:19;;;;;;;28.35;17.08;;;;;;;11.13;30.86;101068.00;5050648;28;20053;-60
2022/03/24 04:32:45;;;;;;;25.45;16.65;;;;;;;11.12;31.05;101063.66;5050675;28;20095;-59
2022/03/24 04:35:13;;;;;;;25.48;16.85;;;;;;;11.08;31.21;101058.50;5050727;28;20401;-59
2022/03/24 04:37:41;;;;;;;23.92;16.95;;;;;;;11.07;31.04;101059.41;5048782;28;20052;-60
2022/03/24 04:40:10;;;;;;;22.38;16.42;;;;;;;11.07;31.16;101056.78;5050449;28;20370;-59
2022/03/24 04:42:41;;;;;;;26.95;16.13;;;;;;;11.06;31.02;101062.09;5049193;28;20048;-60
2022/03/24 04:45:09;;;;;;;23.92;15.95;;;;;;;11.04;30.81;101056.03;5049319;28;20041;-59
2022/03/24 04:47:37;;;;;;;25.55;16.83;;;;;;;11.02;30.93;101053.47;5050446;28;20130;-61
2022/03/24 04:50:05;;;;;;;27.05;17.10;;;;;;;11.01;30.99;101061.41;5050266;28;20057;-60
2022/03/24 04:52:31;;;;;;;27.70;16.52;;;;;;;11.00;30.88;101054.44;5050284;28;20492;-61
2022/03/24 04:55:01;;;;;;;27.65;16.23;;;;;;;10.97;30.94;101054.53;5050287;28;20103;-60
2022/03/24 04:57:29;;;;;;;28.23;18.08;;;;;;;10.94;30.90;101053.75;5049281;28;20048;-60
2022/03/24 04:59:59;;;;;;;25.40;15.93;;;;;;;10.91;30.91;101050.38;5049032;28;20049;-60
2022/03/24 05:02:26;;;;;;;22.75;15.45;;;;;;;10.91;30.84;101060.91;5050045;28;20452;-62
2022/03/24 05:04:54;;;;;;;24.15;15.60;;;;;;;10.89;30.81;101053.09;5050348;28;20061;-59
2022/03/24 05:07:20;;;;;;;23.38;16.42;;;;;;;10.90;30.82;101053.91;5050215;28;20052;-60
2022/03/24 05:09:50;;;;;;;22.92;15.45;;;;;;;10.89;30.90;101052.22;5050210;28;20064;-60
2022/03/24 05:12:17;;;;;;;27.48;16.30;;;;;;;10.89;30.73;101063.63;5050293;28;20053;-60
2022/03/24 05:14:44;;;;;;;24.90;16.75;;;;;;;10.90;30.95;101060.06;5050467;28;20118;-59
2022/03/24 05:17:12;;;;;;;24.20;16.25;;;;;;;10.91;31.05;101058.25;5050174;28;20049;-60
2022/03/24 05:19:39;;;;;;;27.23;16.25;;;;;;;10.90;31.04;101065.31;5050106;28;20049;-60
2022/03/24 05:22:06;;;;;;;23.20;15.68;;;;;;;10.91;31.10;101063.53;5050107;28;20102;-60
2022/03/24 05:24:33;;;;;;;23.73;15.20;;;;;;;10.90;31.07;101064.47;5050433;28;20517;-60
2022/03/24 05:26:59;;;;;;;21.83;16.00;;;;;;;10.89;31.50;101063.63;5050244;28;20072;-62
2022/03/24 05:29:26;;;;;;;23.30;15.93;;;;;;;10.90;31.06;101062.69;5049848;28;20325;-61
2022/03/24 05:31:53;;;;;;;24.65;16.60;;;;;;;10.90;31.25;101060.06;5050276;28;20057;-60
2022/03/24 05:34:19;;;;;;;22.48;16.13;;;;;;;10.91;31.18;101056.50;5050342;28;20099;-61
2022/03/24 05:36:46;;;;;;;25.65;16.80;;;;;;;10.93;30.94;101064.34;5049909;28;20513;-61
2022/03/24 05:39:12;;;;;;;25.15;16.55;;;;;;;10.94;31.08;101069.56;5049913;28;20053;-60
2022/03/24 05:41:39;;;;;;;24.40;16.17;;;;;;;10.95;30.94;101067.78;5049989;28;20053;-60
2022/03/24 05:44:06;;;;;;;25.15;17.05;;;;;;;10.95;31.48;101071.28;5049948;28;20049;-60
2022/03/24 05:46:46;;;;;;;25.08;16.40;;;;;;;10.96;31.32;101066.88;5050130;28;20045;-60
2022/03/24 05:49:15;;;;;;;26.73;16.23;;;;;;;10.95;31.47;101066.00;5049510;28;20405;-60
2022/03/24 05:51:43;;;;;;;23.42;16.00;;;;;;;10.98;31.40;101072.09;5052231;28;20052;-63
2022/03/24 05:54:16;;;;;;;23.58;15.32;;;;;;;10.97;31.55;101067.72;5052420;28;20060;-61
2022/03/24 05:56:44;;;;;;;23.85;16.40;;;;;;;10.99;31.34;101072.00;5052425;28;20425;-60
2022/03/24 05:59:12;;;;;;;22.88;15.93;;;;;;;11.01;31.27;101062.28;5053441;28;20049;-60
2022/03/24 06:01:39;;;;;;;22.38;14.80;;;;;;;11.03;31.03;101060.44;5052110;28;20075;-63
2022/03/24 06:04:07;;;;;;;25.45;15.32;;;;;;;11.05;31.10;101066.53;5052513;28;20099;-59
2022/03/24 06:06:37;;;;;;;25.42;16.98;;;;;;;11.07;31.33;101069.94;5052228;28;20409;-59
2022/03/24 06:09:05;;;;;;;24.45;16.70;;;;;;;11.10;31.29;101065.50;5053289;28;20099;-60
2022/03/24 06:11:35;;;;;;;23.45;15.95;;;;;;;11.12;31.30;101063.66;5052062;28;20045;-60
2022/03/24 06:14:03;;;;;;;24.33;16.17;;;;;;;11.14;31.48;101072.38;5053214;28;20056;-60
2022/03/24 06:16:31;;;;;;;26.88;16.95;;;;;;;11.15;31.43;101064.41;5052130;28;20049;-60
2022/03/24 06:18:59;;;;;;;26.65;16.08;;;;;;;11.17;31.52;101070.47;5052044;28;20746;-60
2022/03/24 06:21:26;;;;;;;26.48;16.98;;;;;;;11.19;31.44;101075.69;5053189;28;20516;-61
2022/03/24 06:23:53;;;;;;;25.90;17.40;;;;;;;11.20;31.68;101070.34;5053009;28;20060;-60
2022/03/24 06:26:23;;;;;;;24.40;16.52;;;;;;;11.21;31.63;101073.84;5053148;28;20095;-60
2022/03/24 06:28:52;;;;;;;24.05;16.63;;;;;;;11.23;31.95;101077.28;5052798;28;20186;-61
2022/03/24 06:31:20;;;;;;;27.38;17.30;;;;;;;11.25;31.86;101074.59;5052655;28;20107;-60
2022/03/24 06:33:48;;;;;;;26.38;16.35;;;;;;;11.27;31.92;101078.00;5051584;28;20048;-65
2022/03/24 06:36:15;;;;;;;25.75;17.17;;;;;;;11.29;31.86;101074.41;5051917;28;20418;-60
2022/03/24 06:38:42;;;;;;;25.90;16.63;;;;;;;11.32;31.89;101079.56;5053031;28;20136;-61
2022/03/24 06:41:09;;;;;;;26.05;16.95;;;;;;;11.35;32.10;101081.22;5052466;28;20071;-60
2022/03/24 06:43:36;;;;;;;26.25;17.13;;;;;;;11.38;32.16;101073.19;5053051;28;20060;-62
2022/03/24 06:46:06;;;;;;;23.27;16.88;;;;;;;11.42;32.14;101080.06;5052967;28;20453;-60
2022/03/24 06:48:33;;;;;;;29.63;16.50;;;;;;;11.46;32.16;101089.56;5051320;28;20045;-60
2022/03/24 06:51:00;;;;;;;24.55;17.08;;;;;;;11.52;32.13;101087.59;5052541;28;20045;-60
2022/03/24 06:53:27;;;;;;;26.63;17.65;;;;;;;11.56;32.23;101084.78;5053131;28;20095;-60
2022/03/24 06:55:53;;;;;;;30.10;17.52;;;;;;;11.63;32.22;101089.81;5052809;28;20052;-60
2022/03/24 06:58:20;;;;;;;24.45;16.95;;;;;;;11.68;32.39;101088.72;5052767;28;20044;-62
2022/03/24 07:00:47;;;;;;;24.75;17.48;;;;;;;11.75;32.26;101084.06;5051933;28;20057;-60
2022/03/24 07:03:14;;;;;;;28.27;17.38;;;;;;;11.82;32.16;101096.06;5052561;28;20068;-59
2022/03/24 07:05:41;;;;;;;25.52;17.13;;;;;;;11.91;32.33;101097.47;5052688;28;20094;-60
2022/03/24 07:08:09;;;;;;;25.77;18.00;;;;;;;11.98;32.10;101098.06;5052486;28;20094;-61
2022/03/24 07:10:35;;;;;;;28.65;18.13;;;;;;;12.05;32.16;101093.41;5050786;28;20052;-63
2022/03/24 07:13:02;;;;;;;30.20;17.73;;;;;;;12.12;32.15;101098.38;5052100;28;20057;-61
2022/03/24 07:15:29;;;;;;;26.73;16.65;;;;;;;12.21;31.81;101096.28;5052489;28;20444;-60
2022/03/24 07:17:55;;;;;;;32.95;18.23;;;;;;;12.30;31.58;101102.97;5052592;28;20048;-61
2022/03/24 07:20:23;;;;;;;23.38;16.45;;;;;;;12.38;31.53;101099.06;5052127;28;20052;-62
2022/03/24 07:22:50;;;;;;;25.30;18.02;;;;;;;12.48;31.49;101104.81;5052188;28;20049;-61
2022/03/24 07:25:16;;;;;;;24.50;17.10;;;;;;;12.58;31.27;101105.28;5051707;28;20052;-63
2022/03/24 07:27:43;;;;;;;25.58;16.92;;;;;;;12.69;31.19;101101.28;5051473;28;20505;-61
2022/03/24 07:30:10;;;;;;;23.95;17.45;;;;;;;12.80;31.13;101112.25;5051755;28;20094;-60
2022/03/24 07:32:39;;;;;;;25.40;16.95;;;;;;;12.89;31.18;101114.47;5050697;28;20041;-60
2022/03/24 07:35:13;;;;;;;24.75;16.80;;;;;;;13.01;30.96;101110.41;5050896;28;20115;-60
2022/03/24 07:37:41;;;;;;;23.02;16.80;;;;;;;13.12;30.79;101109.06;5050555;28;20045;-60
2022/03/24 07:40:09;;;;;;;24.60;17.20;;;;;;;13.23;31.33;101105.94;5052030;28;20134;-61
2022/03/24 07:42:37;;;;;;;25.15;17.60;;;;;;;13.33;30.87;101109.84;5051876;28;20053;-60
2022/03/24 07:45:07;;;;;;;26.42;17.20;;;;;;;13.43;31.08;101115.56;5050446;28;20501;-61
2022/03/24 07:47:35;;;;;;;26.38;17.33;;;;;;;13.54;31.14;101113.28;5051607;28;20440;-61
2022/03/24 07:50:03;;;;;;;26.02;17.50;;;;;;;13.64;30.73;101105.78;5051340;28;20485;-61
2022/03/24 07:52:32;;;;;;;24.63;16.80;;;;;;;13.75;30.63;101107.06;5051273;28;20477;-60
2022/03/24 07:55:06;;;;;;;24.35;17.23;;;;;;;13.84;30.67;101114.56;5051539;28;20485;-61
2022/03/24 07:57:33;;;;;;;24.17;17.38;;;;;;;13.97;30.50;101122.72;5050394;28;20110;-60
2022/03/24 08:00:00;;;;;;;27.08;17.50;;;;;;;14.06;30.85;101118.78;5051175;28;20106;-61
2022/03/24 08:02:26;;;;;;;29.25;18.35;;;;;;;14.16;30.82;101125.31;5051542;28;20114;-62
2022/03/24 08:04:53;;;;;;;33.70;18.80;;;;;;;14.26;30.96;101122.22;5051387;28;20131;-61
2022/03/24 08:07:21;;;;;;;24.52;17.73;;;;;;;14.33;30.80;101120.97;5051035;28;20053;-61
2022/03/24 08:09:49;;;;;;;25.40;17.88;;;;;;;14.41;30.81;101124.09;5051075;28;20053;-61
2022/03/24 08:12:15;;;;;;;32.45;19.20;;;;;;;14.50;31.08;101124.56;5050561;28;20511;-62
2022/03/24 08:14:42;;;;;;;25.45;18.70;;;;;;;14.57;30.73;101120.63;5050765;28;20450;-61
2022/03/24 08:17:08;;;;;;;25.30;18.95;;;;;;;14.64;30.83;101119.38;5050945;28;20099;-61
2022/03/24 08:19:35;;;;;;;28.83;18.67;;;;;;;14.71;30.93;101123.44;5051024;28;20103;-60
2022/03/24 08:22:02;;;;;;;28.02;20.23;;;;;;;14.80;31.04;101127.41;5051179;28;20072;-61
2022/03/24 08:24:29;;;;;;;27.63;18.85;;;;;;;14.88;31.42;101134.09;5050926;28;20049;-61
2022/03/24 08:26:56;;;;;;;27.85;19.75;;;;;;;14.92;31.79;101128.53;5050752;28;20108;-62
2022/03/24 08:29:22;;;;;;;28.52;20.20;;;;;;;15.01;31.36;101134.28;5050386;28;20106;-60
2022/03/24 08:31:49;;;;;;;30.15;20.48;;;;;;;15.06;31.79;101138.41;5050681;28;20053;-60
2022/03/24 08:34:16;;;;;;;31.20;19.35;;;;;;;15.13;31.73;101138.09;5050989;28;20056;-61
2022/03/24 08:36:43;;;;;;;29.30;21.17;;;;;;;15.18;31.73;101141.34;5049528;28;20114;-61
2022/03/24 08:39:10;;;;;;;26.13;19.13;;;;;;;15.22;31.68;101138.44;5049429;28;20194;-63
2022/03/24 08:41:36;;;;;;;26.98;20.10;;;;;;;15.29;32.03;101132.81;5050513;28;20056;-61
2022/03/24 08:44:03;;;;;;;31.58;21.60;;;;;;;15.34;31.88;101141.38;5050471;28;20056;-61
2022/03/24 08:46:30;;;;;;;27.63;20.08;;;;;;;15.39;31.91;101133.16;5050441;28;20056;-61
2022/03/24 08:48:57;;;;;;;29.05;20.25;;;;;;;15.45;31.69;101140.78;5050733;28;20044;-60
2022/03/24 08:51:25;;;;;;;27.35;19.73;;;;;;;15.51;31.62;101135.13;5050401;28;20064;-61
2022/03/24 08:53:52;;;;;;;28.45;19.52;;;;;;;15.57;31.99;101137.44;5050528;28;20041;-61
2022/03/24 08:56:18;;;;;;;27.98;19.10;;;;;;;15.62;31.60;101135.38;5050383;28;20063;-61
2022/03/24 08:58:45;;;;;;;28.63;20.77;;;;;;;15.69;31.96;101133.22;5050207;28;20053;-60
2022/03/24 09:01:13;;;;;;;30.00;19.80;;;;;;;15.76;31.81;101142.56;5049903;28;20498;-61
2022/03/24 09:03:39;;;;;;;28.98;20.80;;;;;;;15.83;31.84;101142.22;5050710;28;20053;-60
2022/03/24 09:06:07;;;;;;;31.23;21.17;;;;;;;15.90;31.67;101140.94;5050358;28;20060;-60
2022/03/24 09:08:34;;;;;;;30.42;20.30;;;;;;;15.97;31.72;101137.00;5050234;28;20052;-60
2022/03/24 09:11:01;;;;;;;29.67;21.23;;;;;;;16.05;31.79;101139.22;5050252;28;20056;-62
2022/03/24 09:13:27;;;;;;;28.85;20.42;;;;;;;16.12;31.70;101143.22;5050067;28;20099;-61
2022/03/24 09:15:54;;;;;;;26.67;20.10;;;;;;;16.20;31.64;101153.41;5050403;28;20045;-61
2022/03/24 09:18:21;;;;;;;31.00;21.08;;;;;;;16.26;31.49;101147.72;5050475;28;20106;-62
2022/03/24 09:20:48;;;;;;;26.30;20.15;;;;;;;16.34;31.24;101157.06;5050272;28;20102;-61
2022/03/24 09:23:15;;;;;;;31.73;21.00;;;;;;;16.40;31.35;101154.03;5049093;28;20056;-61
2022/03/24 09:25:42;;;;;;;31.70;21.35;;;;;;;16.47;31.35;101152.72;5054123;28;20525;-61
2022/03/24 09:28:10;;;;;;;27.40;21.10;;;;;;;16.54;31.60;101159.38;5054556;28;20215;-60
2022/03/24 09:30:36;;;;;;;32.83;22.77;;;;;;;16.61;31.66;101157.22;5054177;28;20056;-61
2022/03/24 09:33:04;;;;;;;32.60;22.42;;;;;;;16.71;31.45;101159.31;5054154;28;20106;-62
2022/03/24 09:35:31;;;;;;;30.80;22.80;;;;;;;16.78;31.21;101160.63;5054097;28;20055;-60
2022/03/24 09:37:57;;;;;;;28.33;21.33;;;;;;;16.85;31.28;101156.66;5054431;28;20057;-61
2022/03/24 09:40:25;;;;;;;32.58;21.77;;;;;;;16.93;31.10;101158.84;5053885;28;20049;-60
2022/03/24 09:42:52;;;;;;;27.55;20.65;;;;;;;17.00;31.04;101157.53;5054206;28;20048;-63
2022/03/24 09:45:19;;;;;;;32.33;21.98;;;;;;;17.08;31.35;101150.91;5053796;28;20440;-61
2022/03/24 09:47:46;;;;;;;31.45;21.73;;;;;;;17.16;30.99;101152.13;5054057;28;20374;-61
2022/03/24 09:50:14;;;;;;;35.25;22.40;;;;;;;17.25;31.46;101157.81;5053724;28;20099;-61
2022/03/24 09:52:41;;;;;;;30.42;20.60;;;;;;;17.34;31.12;101164.38;5052443;28;20075;-61
2022/03/24 09:55:17;;;;;;;30.70;21.40;;;;;;;17.44;31.29;101160.19;5053855;28;20490;-61
2022/03/24 09:57:45;;;;;;;28.52;19.77;;;;;;;17.54;30.64;101158.63;5053526;28;20056;-61
2022/03/24 10:00:32;;;;;;;30.65;21.77;;;;;;;17.66;31.19;101164.13;5053857;28;20077;-61
2022/03/24 10:03:26;;;;;;;25.25;20.67;;;;;;;17.73;31.04;101164.59;5053314;28;20087;-62
2022/03/24 10:06:00;;;;;;;;;;;;;;;17.88;30.63;101165.41;5052333;28;20049;-61
2022/03/24 10:08:28;;;;;;;25.70;19.60;;;;;;;18.02;30.84;101162.66;5052274;28;19990;-61
2022/03/24 10:11:04;;;;;;;23.60;18.63;;;;;;;18.10;30.85;101167.53;5053434;28;20135;-61
2022/03/24 10:13:43;;;;;;;25.40;20.35;;;;;;;18.20;30.67;101157.97;5053273;28;20048;-61
2022/03/24 10:16:34;;;;;;;24.67;19.38;;;;;;;18.33;30.27;101149.16;5053537;28;20110;-61
2022/03/24 10:19:13;;;;;;;28.42;19.38;;;;;;;18.45;29.73;101158.97;5053195;28;20132;-61
2022/03/24 10:21:43;;;;;;;24.77;18.70;;;;;;;18.60;29.67;101161.56;5051988;28;20057;-61
2022/03/24 10:24:15;;;;;;;24.42;19.10;;;;;;;18.71;29.70;101159.00;5052907;28;20543;-61
2022/03/24 10:26:43;;;;;;;29.52;19.50;;;;;;;18.83;29.35;101157.28;5052167;28;20049;-61
2022/03/24 10:29:12;;;;;;;24.60;19.63;;;;;;;18.96;29.61;101156.44;5053125;28;20045;-61
2022/03/24 10:31:39;;;;;;;27.15;18.95;;;;;;;19.07;29.33;101159.25;5051808;28;20130;-62
2022/03/24 10:34:06;;;;;;;24.63;19.70;;;;;;;19.19;29.37;101157.50;5051882;28;20224;-60
2022/03/24 10:36:33;;;;;;;26.67;19.65;;;;;;;19.30;29.69;101153.22;5051971;28;20115;-60
2022/03/24 10:39:04;;;;;;;23.08;17.40;;;;;;;19.39;28.90;101152.53;5052999;28;20053;-60
2022/03/24 10:41:32;;;;;;;23.63;18.80;;;;;;;19.49;29.05;101153.59;5052788;28;20118;-65
2022/03/24 10:44:05;;;;;;;21.80;16.88;;;;;;;19.59;28.56;101147.59;5051431;28;20124;-61
2022/03/24 10:46:33;;;;;;;23.27;17.37;;;;;;;19.68;28.70;101146.91;5051509;28;20555;-61
2022/03/24 10:49:19;;;;;;;25.35;19.10;;;;;;;19.74;28.65;101143.75;5051313;28;20299;-61
2022/03/24 10:51:47;;;;;;;21.38;17.40;;;;;;;19.87;28.25;101141.06;5051457;28;20606;-61
2022/03/24 10:54:35;;;;;;;26.40;18.92;;;;;;;19.95;27.82;101140.47;5052802;28;20056;-62
2022/03/24 10:57:13;;;;;;;20.58;16.83;;;;;;;20.04;27.60;101147.00;5052380;28;20052;-61
2022/03/24 10:59:46;;;;;;;23.77;16.90;;;;;;;20.12;27.74;101144.59;5052221;28;20102;-63
2022/03/24 11:02:14;;;;;;;33.72;17.48;;;;;;;20.24;27.75;101140.13;5051292;28;20122;-63
2022/03/24 11:04:43;;;;;;;20.33;15.98;;;;;;;20.34;26.94;101137.63;5052634;28;20412;-62
2022/03/24 11:07:09;;;;;;;21.77;16.40;;;;;;;20.46;26.95;101135.81;5052386;28;20045;-62
2022/03/24 11:09:36;;;;;;;19.80;15.23;;;;;;;20.57;26.45;101138.50;5052044;28;20049;-60
2022/03/24 11:12:26;;;;;;;19.10;15.05;;;;;;;20.67;26.76;101138.63;5052311;28;20528;-60
2022/03/24 11:14:55;;;;;;;20.40;15.77;;;;;;;20.90;26.87;101140.53;5051039;28;20053;-61
2022/03/24 11:17:24;;;;;;;21.02;15.63;;;;;;;21.13;27.53;101141.38;5052281;28;20114;-61